• Join FlightAware (Why Join?)
  • Login
  • US Flag 
Gobble Gobble! 
04:58PM EST


 

Airport Tracker/Info


-or-


 

Live Flight TrackerFlight Track Log ✈ EJA929 ✈ 20-Feb-2014 ✈ KAPF - KAGS

Flight Track Log - Related Links

Times and Time Zones

All times are in EST time to prevent confusion due to time zone crossing. See the EJA929 flight status page for this flight to view local times or setup timezone preferences in your user account.

Time Position Orientation Groundspeed Altitude Reporting Facility
EST Latitude Longitude Course Direction KTS MPH feet Rate Location/Type
04:36PM 26.0908 -81.6728 North 226 260 8,100  Level Miami Center
04:37PM 26.1619 -81.6708 North 238 274 10,000 2,760 Climbing Miami Center
04:38PM 26.2661 -81.6797 356° North 325 374 13,700 3,600 Climbing Miami Center
04:39PM 26.3744 -81.6889 356° North 369 425 17,200 2,100 Climbing Miami Center
04:40PM 26.9258 -81.7424 North  Level FlightAware Approximate
04:40PM 26.4889 -81.7006 355° North 397 457 18,000  Level Miami Center
04:41PM 26.6136 -81.7103 356° North 426 490 18,000  Level Miami Center
04:42PM 26.7572 -81.7231 355° North 453 521 18,000 120 Level Miami Center
04:43PM 26.8697 -81.7325 356° North 463 533 18,300 1,440 Climbing Miami Center
04:44PM 26.9883 -81.7444 355° North 443 510 20,900 2,100 Climbing Miami Center
04:45PM 27.1064 -81.7728 348° North 430 495 22,600 1,680 Climbing Miami Center
04:46PM 27.2219 -81.8103 344° North 430 495 24,300 1,800 Climbing Miami Center
04:47PM 27.3544 -81.8417 348° North 443 510 26,300 1,740 Climbing Miami Center
04:48PM 27.4811 -81.8028 15° North 449 517 27,800 1,500 Climbing Miami Center
04:49PM 27.6039 -81.7494 21° North 461 531 29,300 1,500 Climbing Miami Center
04:50PM 27.7203 -81.7006 20° North 477 549 30,900 2,280 Climbing Miami Center
04:51PM 27.8600 -81.6431 20° North 482 555 33,900 2,040 Climbing Miami Center
04:52PM 27.9897 -81.6322 North 460 529 35,000 540 Climbing Miami Center
04:53PM 28.1339 -81.6242 North 480 552 35,000  Level Miami Center
04:54PM 28.2803 -81.6161 North 504 580 35,000  Level Miami Center
04:54PM 28.3731 -81.6069 North 513 590 35,000  Level Jacksonville Center
04:55PM 28.5192 -81.6050 North 535 616 35,000  Level Jacksonville Center
04:56PM 28.6650 -81.5983 North 530 610 35,000  Level Jacksonville Center
04:57PM 28.8111 -81.5917 North 525 604 35,000  Level Jacksonville Center
04:58PM 28.9592 -81.5850 North 525 604 35,000  Level Jacksonville Center
04:59PM 29.1075 -81.5758 North 525 604 35,000  Level Jacksonville Center
05:00PM 29.2514 -81.5692 North 525 604 35,000  Level Jacksonville Center
05:01PM 29.3994 -81.5625 North 525 604 35,000  Level Jacksonville Center
05:02PM 29.5475 -81.5533 North 525 604 35,000  Level Jacksonville Center
05:03PM 29.6917 -81.5608 357° North 525 604 35,000  Level Jacksonville Center
05:04PM 29.8381 -81.5756 355° North 525 604 35,000  Level Jacksonville Center
05:05PM 29.9842 -81.5906 355° North 531 611 35,000  Level Jacksonville Center
05:06PM 30.1306 -81.6053 355° North 531 611 35,000  Level Jacksonville Center
05:07PM 30.2811 -81.6225 354° North 526 605 35,000  Level Jacksonville Center
05:08PM 30.4275 -81.6375 355° North 531 611 35,000  Level Jacksonville Center
05:09PM 30.5758 -81.6572 353° North 531 611 35,000  Level Jacksonville Center
05:10PM 30.7200 -81.6747 354° North 531 611 35,000  Level Jacksonville Center
05:11PM 30.8683 -81.6922 354° North 531 611 35,000  Level Jacksonville Center
05:12PM 31.0044 -81.7097 354° North 538 619 35,000  Level Jacksonville Center
05:13PM 31.1486 -81.7250 355° North 538 619 35,000  Level Jacksonville Center
05:14PM 31.2969 -81.7425 354° North 538 619 35,000  Level Jacksonville Center
05:15PM 31.4431 -81.7531 356° North 533 613 35,000 -360 Level Jacksonville Center
05:16PM 31.6042 -81.7731 354° North 538 619 34,300 -1,140 Descending Jacksonville Center
05:17PM 31.7525 -81.7883 355° North 538 619 32,800 -1,500 Descending Jacksonville Center
05:18PM 31.8819 -81.8039 354° North 532 612 31,300 -1,620 Descending Jacksonville Center
05:19PM 32.0450 -81.8214 355° North 526 605 29,600 -1,800 Descending Jacksonville Center
05:20PM 32.1933 -81.8369 355° North 534 615 27,700 -2,520 Descending Jacksonville Center
05:22PM 32.4267 -81.8611 355° North 504 580 22,800 -2,940 Descending Atlanta Center
05:23PM 32.5625 -81.8775 354° North 490 564 19,800 -2,940 Descending Atlanta Center
05:24PM 32.6858 -81.8892 355° North 467 537 17,000 -2,760 Descending Atlanta Center
05:25PM 32.8092 -81.9036 354° North 453 521 14,300 -2,700 Descending Atlanta Center
05:26PM 32.9222 -81.9181 354° North 431 496 11,700 -2,100 Descending Atlanta Center
05:27PM 33.0267 -81.9256 357° North 399 459 10,200 -1,500 Descending Atlanta Center
05:28PM 33.1147 -81.9431 351° North 355 409 8,700 -1,260 Descending Atlanta Center
05:29PM 33.1944 -81.9611 349° North 315 362 7,700 -1,200 Descending Atlanta Center
05:30PM 33.2633 -81.9719 353° North 277 319 6,400 -1,500 Descending Atlanta Center
05:31PM 33.3264 -81.9903 346° North 247 284 4,800 -2,100 Descending Atlanta Center
05:32PM 33.3767 -82.0039 347° North 209 241 2,300 -2,040 Descending Atlanta Center
05:33PM 33.4056 -81.9858 28° Northeast 141 162 800 -1,500 Descending Atlanta Center